sensor_id;sensor_type;location;lat;lon;timestamp;pressure;altitude;pressure_sealevel;temperature;humidity
54122;BME280;40029;58.708;50.190;2022-12-11T06:13:46;100146.72;;;-2.57;48.43
54122;BME280;40029;58.708;50.190;2022-12-11T06:16:17;100130.47;;;-2.62;48.35
54122;BME280;40029;58.708;50.190;2022-12-11T06:18:48;100128.69;;;-2.65;47.67
54122;BME280;40029;58.708;50.190;2022-12-11T06:23:56;100138.50;;;-2.42;47.52
54122;BME280;40029;58.708;50.190;2022-12-11T06:26:28;100135.97;;;-2.42;47.56
54122;BME280;40029;58.708;50.190;2022-12-11T06:28:59;100119.59;;;-2.54;47.90
54122;BME280;40029;58.708;50.190;2022-12-11T06:31:30;100147.75;;;-2.49;47.66
54122;BME280;40029;58.708;50.190;2022-12-11T06:34:01;100110.94;;;-2.60;47.67
54122;BME280;40029;58.708;50.190;2022-12-11T06:36:35;100139.28;;;-2.46;47.71
54122;BME280;40029;58.708;50.190;2022-12-11T06:39:06;100135.88;;;-2.47;47.64
54122;BME280;40029;58.708;50.190;2022-12-11T06:41:38;100140.97;;;-2.47;47.56
54122;BME280;40029;58.708;50.190;2022-12-11T06:44:09;100137.53;;;-2.49;47.65
54122;BME280;40029;58.708;50.190;2022-12-11T06:46:40;100141.13;;;-2.41;47.30
54122;BME280;40029;58.708;50.190;2022-12-11T06:49:10;100125.47;;;-2.56;47.07
54122;BME280;40029;58.708;50.190;2022-12-11T06:51:41;100138.50;;;-2.42;47.81
54122;BME280;40029;58.708;50.190;2022-12-11T06:54:12;100126.66;;;-2.42;47.02
54122;BME280;40029;58.708;50.190;2022-12-11T06:56:43;100094.81;;;-2.59;46.93
54122;BME280;40029;58.708;50.190;2022-12-11T06:59:14;100080.22;;;-2.66;46.93
54122;BME280;40029;58.708;50.190;2022-12-11T07:01:45;100130.84;;;-2.42;46.87
54122;BME280;40029;58.708;50.190;2022-12-11T07:04:16;100089.66;;;-2.62;46.81
54122;BME280;40029;58.708;50.190;2022-12-11T07:06:47;100098.25;;;-2.57;47.13
54122;BME280;40029;58.708;50.190;2022-12-11T07:09:18;100099.91;;;-2.59;47.13
54122;BME280;40029;58.708;50.190;2022-12-11T07:11:50;100135.41;;;-2.28;46.86
54122;BME280;40029;58.708;50.190;2022-12-11T07:14:21;100132.00;;;-2.28;47.02
54122;BME280;40029;58.708;50.190;2022-12-11T07:16:53;100129.28;;;-2.37;46.74
54122;BME280;40029;58.708;50.190;2022-12-11T07:19:24;100119.09;;;-2.36;46.64
54122;BME280;40029;58.708;50.190;2022-12-11T07:21:55;100126.94;;;-2.27;46.90
54122;BME280;40029;58.708;50.190;2022-12-11T07:24:26;100127.00;;;-2.23;46.32
54122;BME280;40029;58.708;50.190;2022-12-11T07:26:57;100120.97;;;-2.26;46.88
54122;BME280;40029;58.708;50.190;2022-12-11T07:29:29;100121.19;;;-2.16;47.15
54122;BME280;40029;58.708;50.190;2022-12-11T07:31:59;100118.59;;;-2.18;46.50
54122;BME280;40029;58.708;50.190;2022-12-11T07:34:31;100115.97;;;-2.21;46.99
54122;BME280;40029;58.708;50.190;2022-12-11T07:37:02;100123.75;;;-2.15;46.20
54122;BME280;40029;58.708;50.190;2022-12-11T07:39:33;100124.72;;;-2.08;46.03
54122;BME280;40029;58.708;50.190;2022-12-11T07:42:04;100097.81;;;-2.36;46.18
54122;BME280;40029;58.708;50.190;2022-12-11T07:44:35;100116.00;;;-2.19;46.05
54122;BME280;40029;58.708;50.190;2022-12-11T14:36:27;100119.91;;;-1.91;48.23
54122;BME280;40029;58.708;50.190;2022-12-11T14:39:03;100133.66;;;-1.85;48.47
54122;BME280;40029;58.708;50.190;2022-12-11T14:41:40;100148.28;;;-1.76;48.39
54122;BME280;40029;58.708;50.190;2022-12-11T14:44:15;100145.81;;;-1.71;48.70
54122;BME280;40029;58.708;50.190;2022-12-11T14:46:50;100147.59;;;-1.67;48.06
54122;BME280;40029;58.708;50.190;2022-12-11T14:49:36;100147.59;;;-1.67;47.81
54122;BME280;40029;58.708;50.190;2022-12-11T14:52:18;100142.47;;;-1.67;48.00
54122;BME280;40029;58.708;50.190;2022-12-11T14:54:53;100143.31;;;-1.68;48.40
54122;BME280;40029;58.708;50.190;2022-12-11T14:57:27;100142.38;;;-1.73;47.98
54122;BME280;40029;58.708;50.190;2022-12-11T15:00:00;100120.13;;;-1.79;48.14
54122;BME280;40029;58.708;50.190;2022-12-11T15:02:33;100143.34;;;-1.67;48.40
54122;BME280;40029;58.708;50.190;2022-12-11T15:05:16;100137.38;;;-1.66;48.25
54122;BME280;40029;58.708;50.190;2022-12-11T15:08:02;100081.50;;;-1.97;48.25
54122;BME280;40029;58.708;50.190;2022-12-11T15:11:11;100121.97;;;-1.70;47.76
54122;BME280;40029;58.708;50.190;2022-12-11T15:13:54;100123.66;;;-1.74;47.75
54122;BME280;40029;58.708;50.190;2022-12-11T15:16:27;100131.31;;;-1.74;48.25
54122;BME280;40029;58.708;50.190;2022-12-11T15:19:01;100144.25;;;-1.65;47.83
54122;BME280;40029;58.708;50.190;2022-12-11T15:21:34;100143.41;;;-1.64;48.09
54122;BME280;40029;58.708;50.190;2022-12-11T15:24:06;100146.56;;;-1.77;48.30
54122;BME280;40029;58.708;50.190;2022-12-11T15:26:49;100148.13;;;-1.85;48.36
54122;BME280;40029;58.708;50.190;2022-12-11T15:34:48;100153.84;;;-1.98;49.04
54122;BME280;40029;58.708;50.190;2022-12-11T15:37:29;100166.66;;;-1.95;48.66
54122;BME280;40029;58.708;50.190;2022-12-11T15:40:02;100148.56;;;-2.08;48.96
54122;BME280;40029;58.708;50.190;2022-12-11T15:42:37;100168.56;;;-1.84;48.55
54122;BME280;40029;58.708;50.190;2022-12-11T15:45:20;100163.44;;;-1.87;48.54
54122;BME280;40029;58.708;50.190;2022-12-11T15:47:52;100178.03;;;-1.80;48.50
54122;BME280;40029;58.708;50.190;2022-12-11T15:50:25;100190.72;;;-1.83;49.02
54122;BME280;40029;58.708;50.190;2022-12-11T15:52:56;100193.19;;;-1.89;49.43
54122;BME280;40029;58.708;50.190;2022-12-11T15:55:27;100195.03;;;-1.82;48.46
54122;BME280;40029;58.708;50.190;2022-12-11T15:58:07;100189.91;;;-1.82;49.39
54122;BME280;40029;58.708;50.190;2022-12-11T16:00:39;100154.44;;;-2.12;48.83
54122;BME280;40029;58.708;50.190;2022-12-11T16:03:13;100190.72;;;-1.83;49.23
54122;BME280;40029;58.708;50.190;2022-12-11T16:05:44;100138.13;;;-2.20;48.82
54122;BME280;40029;58.708;50.190;2022-12-11T16:08:21;100134.81;;;-2.14;49.05
54122;BME280;40029;58.708;50.190;2022-12-11T16:10:54;100194.25;;;-1.78;49.06
54122;BME280;40029;58.708;50.190;2022-12-11T16:13:25;100097.91;;;-2.33;49.41
54122;BME280;40029;58.708;50.190;2022-12-11T16:15:57;100195.25;;;-1.69;49.24
54122;BME280;40029;58.708;50.190;2022-12-11T16:18:28;100141.88;;;-2.01;49.34
54122;BME280;40029;58.708;50.190;2022-12-11T16:21:03;100190.03;;;-1.76;49.25
54122;BME280;40029;58.708;50.190;2022-12-11T16:23:35;100196.84;;;-1.74;49.42
54122;BME280;40029;58.708;50.190;2022-12-11T16:26:06;100187.41;;;-1.79;49.40
54122;BME280;40029;58.708;50.190;2022-12-11T16:28:39;100203.78;;;-1.69;49.55
54122;BME280;40029;58.708;50.190;2022-12-11T16:31:11;100186.66;;;-1.73;49.55
54122;BME280;40029;58.708;50.190;2022-12-11T16:33:42;100193.56;;;-1.67;48.99
54122;BME280;40029;58.708;50.190;2022-12-11T16:36:15;100199.59;;;-1.64;49.82
54122;BME280;40029;58.708;50.190;2022-12-11T16:38:47;100146.09;;;-2.03;49.43
54122;BME280;40029;58.708;50.190;2022-12-11T16:41:18;100200.13;;;-1.82;49.83
54122;BME280;40029;58.708;50.190;2022-12-11T16:43:50;100129.56;;;-2.22;49.68
54122;BME280;40029;58.708;50.190;2022-12-11T16:46:22;100202.63;;;-1.83;49.93
54122;BME280;40029;58.708;50.190;2022-12-11T16:48:53;100203.53;;;-1.81;49.54
54122;BME280;40029;58.708;50.190;2022-12-11T16:51:24;100211.91;;;-1.90;50.45
54122;BME280;40029;58.708;50.190;2022-12-11T16:53:55;100167.06;;;-2.19;50.60
54122;BME280;40029;58.708;50.190;2022-12-11T16:56:26;100222.09;;;-1.90;50.06
54122;BME280;40029;58.708;50.190;2022-12-11T16:59:00;100220.50;;;-1.85;50.36
54122;BME280;40029;58.708;50.190;2022-12-11T17:01:31;100168.78;;;-2.18;49.84
54122;BME280;40029;58.708;50.190;2022-12-11T17:04:03;100216.94;;;-1.93;50.57
54122;BME280;40029;58.708;50.190;2022-12-11T17:06:34;100239.31;;;-1.80;50.12
54122;BME280;40029;58.708;50.190;2022-12-11T17:09:05;100241.00;;;-1.82;50.63
54122;BME280;40029;58.708;50.190;2022-12-11T17:11:36;100247.81;;;-1.82;50.63
54122;BME280;40029;58.708;50.190;2022-12-11T17:14:08;100204.00;;;-2.01;50.23
54122;BME280;40029;58.708;50.190;2022-12-11T17:16:42;100242.78;;;-1.78;50.47
54122;BME280;40029;58.708;50.190;2022-12-11T17:19:14;100232.56;;;-1.78;50.41
54122;BME280;40029;58.708;50.190;2022-12-11T17:21:45;100235.97;;;-1.77;50.17
54122;BME280;40029;58.708;50.190;2022-12-11T17:24:20;100238.47;;;-1.80;51.05
54122;BME280;40029;58.708;50.190;2022-12-11T17:26:51;100234.34;;;-1.73;50.58
54122;BME280;40029;58.708;50.190;2022-12-11T17:29:24;100245.50;;;-1.68;50.76
54122;BME280;40029;58.708;50.190;2022-12-11T17:31:55;100218.59;;;-1.95;50.40
54122;BME280;40029;58.708;50.190;2022-12-11T17:34:26;100213.13;;;-2.13;50.82
54122;BME280;40029;58.708;50.190;2022-12-11T17:36:57;100267.91;;;-1.99;50.80
54122;BME280;40029;58.708;50.190;2022-12-11T17:39:28;100216.41;;;-2.20;50.62
54122;BME280;40029;58.708;50.190;2022-12-11T17:41:59;100268.88;;;-1.92;50.63
54122;BME280;40029;58.708;50.190;2022-12-11T17:44:30;100279.94;;;-1.92;51.13
54122;BME280;40029;58.708;50.190;2022-12-11T17:47:01;100277.69;;;-1.77;50.59
54122;BME280;40029;58.708;50.190;2022-12-11T17:49:32;100276.00;;;-1.78;50.88
54122;BME280;40029;58.708;50.190;2022-12-11T17:52:04;100270.72;;;-1.85;51.15
54122;BME280;40029;58.708;50.190;2022-12-11T17:54:35;100234.75;;;-1.96;50.79
54122;BME280;40029;58.708;50.190;2022-12-11T17:57:06;100258.97;;;-1.77;50.93
54122;BME280;40029;58.708;50.190;2022-12-11T17:59:37;100273.69;;;-1.65;51.12
54122;BME280;40029;58.708;50.190;2022-12-11T18:02:08;100283.06;;;-1.64;50.47
54122;BME280;40029;58.708;50.190;2022-12-11T18:04:40;100272.56;;;-1.78;50.94
54122;BME280;40029;58.708;50.190;2022-12-11T18:07:11;100298.34;;;-1.66;50.34
54122;BME280;40029;58.708;50.190;2022-12-11T18:09:42;100299.31;;;-1.61;50.62
54122;BME280;40029;58.708;50.190;2022-12-11T18:12:13;100287.00;;;-1.79;50.65
54122;BME280;40029;58.708;50.190;2022-12-11T18:14:44;100288.75;;;-1.78;50.15
54122;BME280;40029;58.708;50.190;2022-12-11T18:17:15;100262.91;;;-1.93;50.34
54122;BME280;40029;58.708;50.190;2022-12-11T18:19:46;100290.47;;;-1.77;50.56
54122;BME280;40029;58.708;50.190;2022-12-11T18:22:17;100274.97;;;-1.86;50.62
54122;BME280;40029;58.708;50.190;2022-12-11T18:24:49;100298.13;;;-1.77;50.58
54122;BME280;40029;58.708;50.190;2022-12-11T18:27:20;100298.97;;;-1.78;50.36
54122;BME280;40029;58.708;50.190;2022-12-11T18:29:51;100311.69;;;-1.81;50.60
54122;BME280;40029;58.708;50.190;2022-12-11T18:32:22;100270.84;;;-2.20;50.49
54122;BME280;40029;58.708;50.190;2022-12-11T18:34:53;100264.56;;;-2.34;51.03
54122;BME280;40029;58.708;50.190;2022-12-11T18:37:24;100318.88;;;-2.04;50.83
54122;BME280;40029;58.708;50.190;2022-12-11T18:39:56;100246.50;;;-2.45;50.45
54122;BME280;40029;58.708;50.190;2022-12-11T18:42:27;100325.09;;;-1.91;50.30
54122;BME280;40029;58.708;50.190;2022-12-11T18:44:58;100295.22;;;-1.95;50.69
54122;BME280;40029;58.708;50.190;2022-12-11T18:47:29;100282.94;;;-2.11;50.33
54122;BME280;40029;58.708;50.190;2022-12-11T18:50:00;100314.63;;;-2.02;50.19
54122;BME280;40029;58.708;50.190;2022-12-11T18:52:31;100323.06;;;-2.06;50.05
54122;BME280;40029;58.708;50.190;2022-12-11T18:55:03;100299.59;;;-2.29;50.49
54122;BME280;40029;58.708;50.190;2022-12-11T18:57:34;100337.06;;;-1.88;50.53
54122;BME280;40029;58.708;50.190;2022-12-11T19:00:06;100327.66;;;-1.91;50.22
54122;BME280;40029;58.708;50.190;2022-12-11T19:02:37;100337.03;;;-1.90;49.98
54122;BME280;40029;58.708;50.190;2022-12-11T19:05:09;100342.91;;;-1.92;50.53
54122;BME280;40029;58.708;50.190;2022-12-11T19:07:40;100336.94;;;-1.94;50.35
54122;BME280;40029;58.708;50.190;2022-12-11T19:10:11;100352.28;;;-1.93;50.42
54122;BME280;40029;58.708;50.190;2022-12-11T19:12:43;100333.28;;;-2.06;50.30
54122;BME280;40029;58.708;50.190;2022-12-11T19:15:17;100333.53;;;-1.95;49.78
54122;BME280;40029;58.708;50.190;2022-12-11T19:17:48;100357.56;;;-1.84;50.46
54122;BME280;40029;58.708;50.190;2022-12-11T19:20:19;100356.53;;;-1.92;49.95
54122;BME280;40029;58.708;50.190;2022-12-11T19:22:50;100367.53;;;-1.96;50.11
54122;BME280;40029;58.708;50.190;2022-12-11T19:25:21;100338.84;;;-2.22;50.50
54122;BME280;40029;58.708;50.190;2022-12-11T19:27:52;100321.44;;;-2.40;50.52
54122;BME280;40029;58.708;50.190;2022-12-11T19:30:23;100326.66;;;-2.35;50.02
54122;BME280;40029;58.708;50.190;2022-12-11T19:32:54;100343.91;;;-2.25;50.37
54122;BME280;40029;58.708;50.190;2022-12-11T19:35:25;100315.47;;;-2.40;50.47
54122;BME280;40029;58.708;50.190;2022-12-11T19:37:56;100344.28;;;-2.46;50.29
54122;BME280;40029;58.708;50.190;2022-12-11T19:40:27;100370.25;;;-2.26;50.52
54122;BME280;40029;58.708;50.190;2022-12-11T19:42:58;100371.84;;;-2.30;50.61
54122;BME280;40029;58.708;50.190;2022-12-11T19:45:32;100355.59;;;-2.35;50.19
54122;BME280;40029;58.708;50.190;2022-12-11T19:48:03;100347.31;;;-2.61;50.54
54122;BME280;40029;58.708;50.190;2022-12-11T19:50:35;100387.88;;;-2.37;50.20
54122;BME280;40029;58.708;50.190;2022-12-11T19:53:06;100399.91;;;-2.31;50.08
54122;BME280;40029;58.708;50.190;2022-12-11T19:55:37;100419.00;;;-2.15;50.21
54122;BME280;40029;58.708;50.190;2022-12-11T19:58:08;100419.88;;;-2.15;50.06
54122;BME280;40029;58.708;50.190;2022-12-11T20:00:39;100424.22;;;-2.11;49.96
54122;BME280;40029;58.708;50.190;2022-12-11T20:03:10;100383.63;;;-2.36;49.36
54122;BME280;40029;58.708;50.190;2022-12-11T20:05:41;100418.31;;;-2.08;49.49
54122;BME280;40029;58.708;50.190;2022-12-11T20:08:12;100424.25;;;-2.09;49.13
54122;BME280;40029;58.708;50.190;2022-12-11T20:10:43;100429.34;;;-2.09;49.46
54122;BME280;40029;58.708;50.190;2022-12-11T20:13:15;100423.06;;;-2.23;49.18
54122;BME280;40029;58.708;50.190;2022-12-11T20:15:46;100432.38;;;-2.26;49.91
54122;BME280;40029;58.708;50.190;2022-12-11T20:18:17;100436.66;;;-2.24;49.57
54122;BME280;40029;58.708;50.190;2022-12-11T20:20:48;100401.16;;;-2.50;49.68
54122;BME280;40029;58.708;50.190;2022-12-11T20:23:19;100448.47;;;-2.28;49.51
54122;BME280;40029;58.708;50.190;2022-12-11T20:25:50;100447.69;;;-2.26;49.44
54122;BME280;40029;58.708;50.190;2022-12-11T20:28:21;100452.88;;;-2.22;48.87
54122;BME280;40029;58.708;50.190;2022-12-11T20:30:53;100403.53;;;-2.56;49.57
54122;BME280;40029;58.708;50.190;2022-12-11T20:33:24;100462.31;;;-2.20;49.10
54122;BME280;40029;58.708;50.190;2022-12-11T20:35:55;100457.09;;;-2.24;49.64
54122;BME280;40029;58.708;50.190;2022-12-11T20:38:26;100450.06;;;-2.33;49.45
54122;BME280;40029;58.708;50.190;2022-12-11T20:40:57;100441.25;;;-2.44;49.80
54122;BME280;40029;58.708;50.190;2022-12-11T20:43:29;100451.59;;;-2.40;49.83
54122;BME280;40029;58.708;50.190;2022-12-11T20:46:00;100438.72;;;-2.44;49.90
54122;BME280;40029;58.708;50.190;2022-12-11T20:48:31;100447.84;;;-2.53;49.35
54122;BME280;40029;58.708;50.190;2022-12-11T20:51:04;100458.19;;;-2.48;49.36
54122;BME280;40029;58.708;50.190;2022-12-11T20:53:36;100400.25;;;-2.85;49.61
54122;BME280;40029;58.708;50.190;2022-12-11T20:56:16;100459.56;;;-2.59;49.52
54122;BME280;40029;58.708;50.190;2022-12-11T20:58:47;100486.34;;;-2.45;49.08
54122;BME280;40029;58.708;50.190;2022-12-11T21:01:20;100487.19;;;-2.44;48.94
54122;BME280;40029;58.708;50.190;2022-12-11T21:03:52;100491.25;;;-2.51;48.59
54122;BME280;40029;58.708;50.190;2022-12-11T21:06:31;100498.06;;;-2.52;48.57
54122;BME280;40029;58.708;50.190;2022-12-11T21:09:10;100495.97;;;-2.66;48.91
54122;BME280;40029;58.708;50.190;2022-12-11T21:11:41;100504.41;;;-2.69;48.93
54122;BME280;40029;58.708;50.190;2022-12-11T21:14:14;100506.09;;;-2.69;48.97
54122;BME280;40029;58.708;50.190;2022-12-11T21:16:45;100500.97;;;-2.71;48.98
54122;BME280;40029;58.708;50.190;2022-12-11T21:19:16;100441.28;;;-3.08;49.00
54122;BME280;40029;58.708;50.190;2022-12-11T21:21:49;100501.69;;;-2.75;48.77
54122;BME280;40029;58.708;50.190;2022-12-11T21:24:25;100501.56;;;-2.80;48.85
54122;BME280;40029;58.708;50.190;2022-12-11T21:26:57;100502.56;;;-2.74;48.79
54122;BME280;40029;58.708;50.190;2022-12-11T21:29:28;100460.06;;;-3.06;49.17
54122;BME280;40029;58.708;50.190;2022-12-11T21:32:00;100522.13;;;-2.73;48.57
54122;BME280;40029;58.708;50.190;2022-12-11T21:34:31;100529.16;;;-2.65;49.00
54122;BME280;40029;58.708;50.190;2022-12-11T21:37:02;100503.94;;;-2.86;48.68
54122;BME280;40029;58.708;50.190;2022-12-11T21:39:33;100483.66;;;-3.11;49.03
54122;BME280;40029;58.708;50.190;2022-12-11T21:42:04;100534.72;;;-2.80;48.85
54122;BME280;40029;58.708;50.190;2022-12-11T21:44:35;100443.00;;;-3.37;48.97
54122;BME280;40029;58.708;50.190;2022-12-11T21:47:06;100462.03;;;-3.25;48.95
54122;BME280;40029;58.708;50.190;2022-12-11T21:49:37;100526.00;;;-2.88;49.09
54122;BME280;40029;58.708;50.190;2022-12-11T21:52:08;100540.50;;;-2.85;49.41
54122;BME280;40029;58.708;50.190;2022-12-11T21:54:39;100543.88;;;-2.86;49.02
54122;BME280;40029;58.708;50.190;2022-12-11T21:57:10;100550.91;;;-2.78;48.72
54122;BME280;40029;58.708;50.190;2022-12-11T21:59:41;100543.91;;;-2.85;49.22
54122;BME280;40029;58.708;50.190;2022-12-11T22:02:12;100537.56;;;-2.99;49.10
54122;BME280;40029;58.708;50.190;2022-12-11T22:04:43;100549.06;;;-2.83;48.67
54122;BME280;40029;58.708;50.190;2022-12-11T22:07:17;100556.59;;;-2.88;48.83
54122;BME280;40029;58.708;50.190;2022-12-11T22:09:47;100541.63;;;-3.06;49.07
54122;BME280;40029;58.708;50.190;2022-12-11T22:12:24;100553.31;;;-2.84;49.08
54122;BME280;40029;58.708;50.190;2022-12-11T22:14:55;100539.41;;;-2.93;48.90
54122;BME280;40029;58.708;50.190;2022-12-11T22:17:26;100556.53;;;-2.89;49.24
54122;BME280;40029;58.708;50.190;2022-12-11T22:19:59;100548.75;;;-2.94;49.25
54122;BME280;40029;58.708;50.190;2022-12-11T22:22:30;100548.72;;;-2.95;49.32
54122;BME280;40029;58.708;50.190;2022-12-11T22:25:01;100560.81;;;-2.88;49.10
54122;BME280;40029;58.708;50.190;2022-12-11T22:27:33;100500.75;;;-3.09;48.86
54122;BME280;40029;58.708;50.190;2022-12-11T22:30:05;100551.75;;;-2.79;48.63
54122;BME280;40029;58.708;50.190;2022-12-11T22:32:36;100543.09;;;-2.84;48.40
54122;BME280;40029;58.708;50.190;2022-12-11T22:35:07;100547.16;;;-2.90;49.14
54122;BME280;40029;58.708;50.190;2022-12-11T22:37:39;100476.06;;;-3.40;49.10
54122;BME280;40029;58.708;50.190;2022-12-11T22:40:10;100551.22;;;-2.97;48.64
54122;BME280;40029;58.708;50.190;2022-12-11T22:42:41;100552.16;;;-2.93;48.90
54122;BME280;40029;58.708;50.190;2022-12-11T22:45:13;100550.34;;;-2.97;48.69
54122;BME280;40029;58.708;50.190;2022-12-11T22:47:45;100558.16;;;-2.93;48.57
54122;BME280;40029;58.708;50.190;2022-12-11T22:50:16;100551.25;;;-2.95;48.61
54122;BME280;40029;58.708;50.190;2022-12-11T22:52:47;100571.78;;;-2.91;48.49
54122;BME280;40029;58.708;50.190;2022-12-11T22:55:18;100477.41;;;-3.51;48.79
54122;BME280;40029;58.708;50.190;2022-12-11T22:57:49;100535.44;;;-3.14;48.88
54122;BME280;40029;58.708;50.190;2022-12-11T23:00:20;100569.25;;;-2.91;48.35
54122;BME280;40029;58.708;50.190;2022-12-11T23:02:51;100518.91;;;-3.27;48.38
54122;BME280;40029;58.708;50.190;2022-12-11T23:05:22;100529.78;;;-3.32;49.21
54122;BME280;40029;58.708;50.190;2022-12-11T23:07:53;100569.56;;;-3.09;48.93
54122;BME280;40029;58.708;50.190;2022-12-11T23:10:24;100558.69;;;-3.03;48.50
54122;BME280;40029;58.708;50.190;2022-12-11T23:12:55;100519.72;;;-3.28;48.61
54122;BME280;40029;58.708;50.190;2022-12-11T23:15:26;100575.69;;;-3.02;48.71
54122;BME280;40029;58.708;50.190;2022-12-11T23:17:57;100573.00;;;-3.07;48.51
54122;BME280;40029;58.708;50.190;2022-12-11T23:20:28;100588.44;;;-3.02;48.32
54122;BME280;40029;58.708;50.190;2022-12-11T23:22:59;100575.53;;;-3.08;48.75
54122;BME280;40029;58.708;50.190;2022-12-11T23:25:30;100591.78;;;-3.05;48.58
54122;BME280;40029;58.708;50.190;2022-12-11T23:28:01;100598.38;;;-3.11;48.43
54122;BME280;40029;58.708;50.190;2022-12-11T23:30:32;100595.19;;;-3.04;48.69
54122;BME280;40029;58.708;50.190;2022-12-11T23:33:03;100581.22;;;-3.17;48.91
54122;BME280;40029;58.708;50.190;2022-12-11T23:35:36;100600.69;;;-3.19;49.08
54122;BME280;40029;58.708;50.190;2022-12-11T23:38:07;100603.59;;;-3.07;48.79
54122;BME280;40029;58.708;50.190;2022-12-11T23:40:38;100605.06;;;-3.15;48.82
54122;BME280;40029;58.708;50.190;2022-12-11T23:43:09;100614.94;;;-3.25;49.28
54122;BME280;40029;58.708;50.190;2022-12-11T23:45:44;100611.56;;;-3.24;49.08
54122;BME280;40029;58.708;50.190;2022-12-11T23:48:16;100614.94;;;-3.25;49.04
54122;BME280;40029;58.708;50.190;2022-12-11T23:50:47;100617.63;;;-3.21;48.90
54122;BME280;40029;58.708;50.190;2022-12-11T23:53:18;100623.78;;;-3.14;48.82
54122;BME280;40029;58.708;50.190;2022-12-11T23:55:50;100619.63;;;-3.11;48.91
54122;BME280;40029;58.708;50.190;2022-12-11T23:58:21;100624.06;;;-3.05;48.87
